Time;durP1;ratioP1;P1;durP2;ratioP2;P2;SDS_P1;SDS_P2;PMS_P1;PMS_P2;Temp;Humidity;BMP_temperature;BMP_pressure;BME280_temperature;BME280_humidity;BME280_pressure;Samples;Min_cycle;Max_cycle;Signal;HPM_P1;HPM_P2
2021/04/16 00:00:36;;;;;;;5.28;2.75;;;;;;;-143.98;100.00;68091.63;5066984;28;20083;-82
2021/04/16 00:03:03;;;;;;;4.50;2.08;;;;;;;-143.98;100.00;68091.63;5026195;28;20084;-82
2021/04/16 00:05:30;;;;;;;3.38;2.50;;;;;;;-143.98;100.00;68091.63;5024818;28;20174;-82
2021/04/16 00:07:56;;;;;;;7.72;2.40;;;;;;;-143.98;100.00;68091.63;5024934;28;20144;-82
2021/04/16 00:10:35;;;;;;;6.55;2.22;;;;;;;-143.98;100.00;68091.63;5041623;28;20072;-82
2021/04/16 00:13:02;;;;;;;;;;;;;;;-143.98;100.00;68091.63;5041471;28;20057;-82
2021/04/16 00:15:34;;;;;;;3.20;2.38;;;;;;;-143.98;100.00;68091.63;5058461;28;19951;-82
2021/04/16 00:18:04;;;;;;;3.47;2.10;;;;;;;-143.98;100.00;68091.63;5071927;28;20131;-82
2021/04/16 00:20:34;;;;;;;5.10;1.95;;;;;;;-143.98;100.00;68091.63;5047706;28;20309;-82
2021/04/16 00:23:00;;;;;;;3.60;2.30;;;;;;;-143.98;100.00;68091.63;5032554;28;20060;-82
2021/04/16 00:25:29;;;;;;;10.90;2.00;;;;;;;-143.98;100.00;68091.63;5047493;28;20064;-82
2021/04/16 00:27:56;;;;;;;10.40;2.22;;;;;;;-143.98;100.00;68091.63;5032442;28;20061;-82
2021/04/16 00:30:28;;;;;;;5.10;2.55;;;;;;;-143.98;100.00;68091.63;5031694;28;20076;-82
2021/04/16 00:32:58;;;;;;;10.95;2.50;;;;;;;-143.98;100.00;68091.63;5031471;28;20072;-82
2021/04/16 00:35:24;;;;;;;3.75;2.15;;;;;;;-143.98;100.00;68091.63;5027101;28;20065;-82
2021/04/16 00:37:51;;;;;;;5.25;2.30;;;;;;;-143.98;100.00;68091.63;5027731;28;20064;-81
2021/04/16 00:40:23;;;;;;;4.18;2.22;;;;;;;-143.98;100.00;68091.63;5043681;28;20333;-82
2021/04/16 00:42:52;;;;;;;6.05;2.45;;;;;;;-143.98;100.00;68091.63;5026279;28;20195;-82
2021/04/16 00:45:18;;;;;;;4.18;2.42;;;;;;;-143.98;100.00;68091.63;5042829;28;20052;-81
2021/04/16 00:47:45;;;;;;;5.40;2.28;;;;;;;-143.98;100.00;68091.63;5043087;28;20061;-81
2021/04/16 00:50:16;;;;;;;5.70;2.40;;;;;;;-143.98;100.00;68091.63;5042265;28;20092;-81
2021/04/16 00:52:45;;;;;;;3.22;2.10;;;;;;;-143.98;100.00;68091.63;5024977;28;20076;-80
2021/04/16 00:55:12;;;;;;;4.57;1.95;;;;;;;-143.98;100.00;68091.63;5024171;28;20065;-81
2021/04/16 00:57:38;;;;;;;3.92;1.98;;;;;;;-143.98;100.00;68091.63;5041634;28;20057;-81
2021/04/16 01:00:07;;;;;;;7.32;2.10;;;;;;;-143.98;100.00;68091.63;5039619;28;20160;-81
2021/04/16 01:02:34;;;;;;;6.18;3.05;;;;;;;-143.98;100.00;68091.63;5040036;28;20427;-80
2021/04/16 01:05:00;;;;;;;4.78;2.35;;;;;;;-143.98;100.00;68091.63;5039600;28;20068;-81
2021/04/16 01:07:28;;;;;;;4.47;2.72;;;;;;;-143.98;100.00;68091.63;5039738;28;20057;-81
2021/04/16 01:09:56;;;;;;;3.70;2.70;;;;;;;-143.98;100.00;68091.63;5039301;28;20133;-81
2021/04/16 01:12:23;;;;;;;5.53;2.47;;;;;;;-143.98;100.00;68091.63;5039487;28;20065;-81
2021/04/16 01:14:54;;;;;;;5.53;3.13;;;;;;;-143.98;100.00;68091.63;5039303;28;20393;-81
2021/04/16 01:17:21;;;;;;;6.78;3.05;;;;;;;-143.98;100.00;68091.63;5007438;28;20065;-81
2021/04/16 01:20:09;;;;;;;7.22;2.95;;;;;;;-143.98;100.00;68091.63;5042587;28;20057;-81
2021/04/16 01:22:48;;;;;;;7.95;3.22;;;;;;;-143.98;100.00;68091.63;5040461;28;20068;-81
2021/04/16 01:25:18;;;;;;;6.07;3.17;;;;;;;-143.98;100.00;68091.63;5040635;28;20061;-80
2021/04/16 01:27:50;;;;;;;6.13;3.28;;;;;;;-143.98;100.00;68091.63;5024560;28;20140;-81
2021/04/16 01:30:22;;;;;;;6.78;3.50;;;;;;;-143.98;100.00;68091.63;5046491;28;20064;-80
2021/04/16 01:32:55;;;;;;;6.43;3.03;;;;;;;-143.98;100.00;68091.63;5050277;28;20061;-81
2021/04/16 01:35:30;;;;;;;7.95;2.90;;;;;;;-143.98;100.00;68091.63;5043968;28;20069;-82
2021/04/16 01:37:56;;;;;;;5.25;3.08;;;;;;;-143.98;100.00;68091.63;5040854;28;20057;-82
2021/04/16 01:40:23;;;;;;;5.55;3.22;;;;;;;-143.98;100.00;68091.63;5048548;28;20049;-81
2021/04/16 01:42:49;;;;;;;8.45;3.17;;;;;;;-143.98;100.00;68091.63;5054873;28;20037;-81
2021/04/16 01:45:23;;;;;;;5.80;3.17;;;;;;;-143.98;100.00;68091.63;5042932;28;20388;-82
2021/04/16 01:48:00;;;;;;;6.15;2.97;;;;;;;-143.98;100.00;68091.63;5038341;28;20061;-82
2021/04/16 01:50:28;;;;;;;6.53;3.45;;;;;;;-143.98;100.00;68091.63;5036559;28;20061;-82
2021/04/16 01:52:57;;;;;;;12.55;3.38;;;;;;;-143.98;100.00;68091.63;5040473;28;20064;-81
2021/04/16 01:55:24;;;;;;;5.85;2.95;;;;;;;-143.98;100.00;68091.63;5041498;28;20396;-82
2021/04/16 01:57:50;;;;;;;5.43;2.90;;;;;;;-143.98;100.00;68091.63;5041291;28;20132;-82
2021/04/16 02:00:39;;;;;;;8.20;3.47;;;;;;;-143.98;100.00;68091.63;5040924;28;20061;-81
2021/04/16 02:03:06;;;;;;;7.35;3.55;;;;;;;-143.98;100.00;68091.63;5043619;28;20062;-82
2021/04/16 02:05:32;;;;;;;6.57;3.13;;;;;;;-143.98;100.00;68091.63;5022856;28;20118;-82
2021/04/16 02:07:58;;;;;;;4.35;3.15;;;;;;;-143.98;100.00;68091.63;5040301;28;20498;-82
2021/04/16 02:10:34;;;;;;;8.23;3.70;;;;;;;-143.98;100.00;68091.63;5038880;28;20180;-82
2021/04/16 02:13:00;;;;;;;5.88;3.22;;;;;;;-143.98;100.00;68091.63;5039701;28;20053;-82
2021/04/16 02:15:26;;;;;;;4.07;2.72;;;;;;;-143.98;100.00;68091.63;5038887;28;20403;-82
2021/04/16 02:17:53;;;;;;;8.13;3.40;;;;;;;-143.98;100.00;68091.63;5037524;28;20136;-81
2021/04/16 02:20:23;;;;;;;5.38;3.55;;;;;;;-143.98;100.00;68091.63;5039478;28;20418;-82
2021/04/16 02:22:53;;;;;;;4.43;2.95;;;;;;;-143.98;100.00;68091.63;5048590;28;20064;-82
2021/04/16 02:25:20;;;;;;;5.50;3.58;;;;;;;-143.98;100.00;68091.63;5051178;28;20052;-82
2021/04/16 02:27:53;;;;;;;5.32;3.75;;;;;;;-143.98;100.00;68091.63;5053690;28;20085;-82
2021/04/16 02:30:33;;;;;;;5.35;3.75;;;;;;;-143.98;100.00;68091.63;5051142;28;20088;-82
2021/04/16 02:32:59;;;;;;;7.28;4.18;;;;;;;-143.98;100.00;68091.63;5041849;28;20069;-83
2021/04/16 02:35:30;;;;;;;5.45;3.72;;;;;;;-143.98;100.00;68091.63;5040105;28;20053;-82
2021/04/16 02:37:59;;;;;;;6.13;3.72;;;;;;;-143.98;100.00;68091.63;5050688;28;20041;-82
2021/04/16 02:40:27;;;;;;;6.32;4.13;;;;;;;-143.98;100.00;68091.63;5036768;28;20125;-82
2021/04/16 02:42:53;;;;;;;7.88;4.55;;;;;;;-143.98;100.00;68091.63;5041752;28;20053;-82
2021/04/16 02:45:22;;;;;;;5.65;3.90;;;;;;;-143.98;100.00;68091.63;5038910;28;20119;-82
2021/04/16 02:47:52;;;;;;;8.98;3.85;;;;;;;-143.98;100.00;68091.63;5039095;28;20056;-82
2021/04/16 02:50:22;;;;;;;10.75;4.32;;;;;;;-143.98;100.00;68091.63;5040774;28;20092;-82
2021/04/16 02:52:48;;;;;;;5.60;3.88;;;;;;;-143.98;100.00;68091.63;5007045;28;20058;-82
2021/04/16 02:55:15;;;;;;;8.55;4.13;;;;;;;-143.98;100.00;68091.63;5039547;28;20115;-82
2021/04/16 02:57:41;;;;;;;5.85;3.65;;;;;;;-143.98;100.00;68091.63;5022118;28;20061;-82
2021/04/16 03:00:15;;;;;;;7.07;3.95;;;;;;;-143.98;100.00;68091.63;5039450;28;20061;-82
2021/04/16 03:02:42;;;;;;;7.85;4.82;;;;;;;-143.98;100.00;68091.63;5039170;28;20060;-81
2021/04/16 03:05:12;;;;;;;6.78;3.10;;;;;;;-143.98;100.00;68091.63;5037000;28;20330;-82
2021/04/16 03:07:41;;;;;;;7.28;3.42;;;;;;;-143.98;100.00;68091.63;5038504;28;20053;-80
2021/04/16 03:10:08;;;;;;;7.60;4.30;;;;;;;-143.98;100.00;68091.63;5036338;28;20057;-82
2021/04/16 03:12:35;;;;;;;6.30;3.83;;;;;;;-143.98;100.00;68091.63;5039190;28;20135;-82
2021/04/16 03:15:01;;;;;;;5.88;3.60;;;;;;;-143.98;100.00;68091.63;5037738;28;20053;-83
2021/04/16 03:17:28;;;;;;;6.75;3.33;;;;;;;-143.98;100.00;68091.63;5037092;28;20057;-81
2021/04/16 03:19:54;;;;;;;7.97;3.80;;;;;;;-143.98;100.00;68091.63;5038945;28;20471;-81
2021/04/16 03:22:20;;;;;;;5.43;3.45;;;;;;;-143.98;100.00;68091.63;5037245;28;20053;-82
2021/04/16 03:24:47;;;;;;;7.95;3.70;;;;;;;-143.98;100.00;68091.63;5021630;28;20061;-82
2021/04/16 03:27:16;;;;;;;8.40;3.42;;;;;;;-143.98;100.00;68091.63;5036630;28;20057;-82
2021/04/16 03:29:43;;;;;;;10.82;3.30;;;;;;;-143.98;100.00;68091.63;5028852;28;20080;-81
2021/04/16 03:32:09;;;;;;;5.25;3.30;;;;;;;-143.98;100.00;68091.63;5047551;28;20080;-82
2021/04/16 03:34:36;;;;;;;4.82;3.55;;;;;;;-143.98;100.00;68091.63;5048522;28;20080;-81
2021/04/16 03:37:02;;;;;;;9.85;3.95;;;;;;;-143.98;100.00;68091.63;5042368;28;20057;-82
2021/04/16 03:39:31;;;;;;;8.35;3.10;;;;;;;-143.98;100.00;68091.63;5040673;28;20053;-82
2021/04/16 03:42:01;;;;;;;9.68;3.38;;;;;;;-143.98;100.00;68091.63;5036345;28;20409;-81
2021/04/16 03:44:27;;;;;;;7.40;4.05;;;;;;;-143.98;100.00;68091.63;5037845;28;20057;-82
2021/04/16 03:46:53;;;;;;;7.43;3.80;;;;;;;-143.98;100.00;68091.63;5040605;28;20147;-82
2021/04/16 03:49:24;;;;;;;6.82;3.67;;;;;;;-143.98;100.00;68091.63;5026819;28;20282;-81
2021/04/16 03:51:59;;;;;;;5.13;3.47;;;;;;;-143.98;100.00;68091.63;5041050;28;20119;-81
2021/04/16 03:54:28;;;;;;;8.23;3.22;;;;;;;-143.98;100.00;68091.63;5042103;28;20104;-81
2021/04/16 03:56:55;;;;;;;8.43;3.95;;;;;;;-143.98;100.00;68091.63;5043378;28;20053;-81
2021/04/16 03:59:25;;;;;;;4.57;2.95;;;;;;;-143.98;100.00;68091.63;5027401;28;20088;-81
2021/04/16 04:01:55;;;;;;;5.30;3.20;;;;;;;-143.98;100.00;68091.63;5026184;28;20053;-81
2021/04/16 04:04:24;;;;;;;6.45;3.38;;;;;;;-143.98;100.00;68091.63;5043131;28;20053;-81
2021/04/16 04:06:51;;;;;;;7.88;3.65;;;;;;;-143.98;100.00;68091.63;5043687;28;20152;-81
2021/04/16 04:09:18;;;;;;;4.75;3.30;;;;;;;-143.98;100.00;68091.63;5029079;28;20084;-82
2021/04/16 04:11:49;;;;;;;7.30;2.80;;;;;;;-143.98;100.00;68091.63;5032457;28;20049;-82
2021/04/16 04:14:19;;;;;;;5.35;3.58;;;;;;;-143.98;100.00;68091.63;5046951;28;20057;-81
2021/04/16 04:16:50;;;;;;;8.10;3.65;;;;;;;-143.98;100.00;68091.63;5044052;28;20068;-81
2021/04/16 04:19:20;;;;;;;7.25;3.60;;;;;;;-143.98;100.00;68091.63;5042150;28;20049;-81
2021/04/16 04:21:50;;;;;;;7.35;3.35;;;;;;;-143.98;100.00;68091.63;5060490;28;20286;-81
2021/04/16 04:24:19;;;;;;;5.45;3.35;;;;;;;-143.98;100.00;68091.63;5045151;28;20111;-82
2021/04/16 04:26:49;;;;;;;7.15;3.42;;;;;;;-143.98;100.00;68091.63;5062921;28;20095;-82
2021/04/16 04:29:24;;;;;;;13.57;3.45;;;;;;;-143.98;100.00;68091.63;5030327;28;20103;-82
2021/04/16 04:31:51;;;;;;;6.32;3.15;;;;;;;-143.98;100.00;68091.63;5046771;28;20436;-81
2021/04/16 04:34:21;;;;;;;5.32;2.90;;;;;;;-143.98;100.00;68091.63;5030788;28;20098;-81
2021/04/16 04:36:49;;;;;;;6.78;3.13;;;;;;;-143.98;100.00;68091.63;5053969;28;20215;-81
2021/04/16 04:39:15;;;;;;;5.07;2.92;;;;;;;-143.98;100.00;68091.63;5057620;28;20071;-82
2021/04/16 04:41:42;;;;;;;5.93;3.45;;;;;;;-143.98;100.00;68091.63;5060954;28;20290;-81
2021/04/16 04:44:09;;;;;;;5.70;2.92;;;;;;;-143.98;100.00;68091.63;5077027;28;20052;-81
2021/04/16 04:46:35;;;;;;;4.72;3.13;;;;;;;-143.98;100.00;68091.63;5057857;28;20083;-81
2021/04/16 04:49:03;;;;;;;7.47;3.10;;;;;;;-143.98;100.00;68091.63;5049248;28;20421;-82
2021/04/16 04:51:30;;;;;;;5.65;3.00;;;;;;;-143.98;100.00;68091.63;5072633;28;20114;-82
2021/04/16 04:53:56;;;;;;;5.53;2.47;;;;;;;-143.98;100.00;68091.63;5072670;28;20067;-81
2021/04/16 04:56:26;;;;;;;13.60;3.13;;;;;;;-143.98;100.00;68091.63;5069636;28;20108;-82
2021/04/16 04:58:55;;;;;;;6.68;3.50;;;;;;;-143.98;100.00;68091.63;5062826;28;20181;-80
2021/04/16 05:01:24;;;;;;;7.57;3.33;;;;;;;-143.98;100.00;68091.63;5050545;28;20053;-80
2021/04/16 05:03:50;;;;;;;7.45;2.65;;;;;;;-143.98;100.00;68091.63;5050020;28;20057;-82
2021/04/16 05:06:24;;;;;;;5.80;2.83;;;;;;;-143.98;100.00;68091.63;5051809;28;20432;-82
2021/04/16 05:09:00;;;;;;;6.43;3.00;;;;;;;-143.98;100.00;68091.63;5063325;28;20167;-82
2021/04/16 05:11:30;;;;;;;4.88;2.95;;;;;;;-143.98;100.00;68091.63;5061212;28;20048;-82
2021/04/16 05:14:04;;;;;;;9.15;3.30;;;;;;;-143.98;100.00;68091.63;5044217;28;20080;-82
2021/04/16 05:16:30;;;;;;;10.05;2.90;;;;;;;-143.98;100.00;68091.63;5059705;28;20167;-82
2021/04/16 05:19:06;;;;;;;6.28;3.30;;;;;;;-143.98;100.00;68091.63;5058959;28;20083;-82
2021/04/16 05:21:34;;;;;;;6.38;3.15;;;;;;;-143.98;100.00;68091.63;5057434;28;20048;-82
2021/04/16 05:24:03;;;;;;;8.55;2.70;;;;;;;-143.98;100.00;68091.63;5056716;28;20102;-83
2021/04/16 05:26:34;;;;;;;8.20;3.15;;;;;;;-143.98;100.00;68091.63;5041904;28;20045;-80
2021/04/16 05:29:04;;;;;;;6.35;2.88;;;;;;;-143.98;100.00;68091.63;5041725;28;20044;-82
2021/04/16 05:31:31;;;;;;;14.20;3.33;;;;;;;-143.98;100.00;68091.63;5076525;28;20188;-81
2021/04/16 05:34:08;;;;;;;6.03;3.35;;;;;;;-143.98;100.00;68091.63;5046714;28;20052;-82
2021/04/16 05:36:34;;;;;;;10.98;3.17;;;;;;;-143.98;100.00;68091.63;5060589;28;20102;-83
2021/04/16 05:39:01;;;;;;;10.02;3.50;;;;;;;-143.98;100.00;68091.63;5038844;28;20413;-82
2021/04/16 05:41:27;;;;;;;6.78;3.38;;;;;;;-143.98;100.00;68091.63;5054052;28;20420;-82
2021/04/16 05:43:54;;;;;;;6.40;2.97;;;;;;;-143.98;100.00;68091.63;5052832;28;20194;-82
2021/04/16 05:46:21;;;;;;;7.88;3.15;;;;;;;-143.98;100.00;68091.63;5075060;28;20054;-82
2021/04/16 05:48:59;;;;;;;14.20;2.65;;;;;;;-143.98;100.00;68091.63;5043792;28;20120;-83
2021/04/16 05:51:36;;;;;;;8.68;2.85;;;;;;;-143.98;100.00;68091.63;5040141;28;20048;-82
2021/04/16 05:54:05;;;;;;;9.40;2.25;;;;;;;-143.98;100.00;68091.63;5073390;28;20059;-81
2021/04/16 05:56:32;;;;;;;8.02;2.60;;;;;;;-143.98;100.00;68091.63;5070526;28;20044;-81
2021/04/16 05:58:58;;;;;;;6.72;2.80;;;;;;;-143.98;100.00;68091.63;5060964;28;20328;-82
2021/04/16 06:01:32;;;;;;;7.88;2.30;;;;;;;-143.98;100.00;68091.63;5057437;28;20066;-83
2021/04/16 06:03:59;;;;;;;4.50;2.83;;;;;;;-143.98;100.00;68091.63;5058872;28;20056;-82
2021/04/16 06:06:25;;;;;;;8.30;2.60;;;;;;;-143.98;100.00;68091.63;5054456;28;20262;-82
2021/04/16 06:09:08;;;;;;;8.98;2.80;;;;;;;-143.98;100.00;68091.63;5053695;28;20220;-82
2021/04/16 06:11:38;;;;;;;6.43;2.20;;;;;;;-143.98;100.00;68091.63;5062429;28;20059;-81
2021/04/16 06:14:09;;;;;;;6.88;2.85;;;;;;;-143.98;100.00;68091.63;5042968;28;20280;-81
2021/04/16 06:16:37;;;;;;;5.50;2.22;;;;;;;-143.98;100.00;68091.63;5076263;28;20064;-82
2021/04/16 06:19:05;;;;;;;4.47;2.08;;;;;;;-143.98;100.00;68091.63;5073783;28;20143;-82
2021/04/16 06:21:34;;;;;;;9.32;2.35;;;;;;;-143.98;100.00;68091.63;5037724;28;20052;-81
2021/04/16 06:24:03;;;;;;;9.77;2.75;;;;;;;-143.98;100.00;68091.63;5039505;28;20108;-82
2021/04/16 06:26:30;;;;;;;5.47;2.50;;;;;;;-143.98;100.00;68091.63;5039880;28;20331;-82
2021/04/16 06:29:02;;;;;;;5.15;2.28;;;;;;;-143.98;100.00;68091.63;5038754;28;20124;-82
2021/04/16 06:31:28;;;;;;;7.93;2.30;;;;;;;-143.98;100.00;68091.63;5056376;28;20116;-83
2021/04/16 06:33:56;;;;;;;5.22;2.03;;;;;;;-143.98;100.00;68091.63;5075285;28;20275;-81
2021/04/16 06:36:24;;;;;;;6.47;2.30;;;;;;;-143.98;100.00;68091.63;5038369;28;20307;-81
2021/04/16 06:38:53;;;;;;;13.00;2.35;;;;;;;-143.98;100.00;68091.63;5072123;28;20064;-82
2021/04/16 06:41:27;;;;;;;3.63;2.20;;;;;;;-143.98;100.00;68091.63;5055778;28;20120;-83
2021/04/16 06:44:11;;;;;;;9.25;1.92;;;;;;;-143.98;100.00;68091.63;5070594;28;20500;-83
2021/04/16 06:46:48;;;;;;;11.20;2.20;;;;;;;-143.98;100.00;68091.63;5037121;28;20053;-82
2021/04/16 06:49:18;;;;;;;9.48;2.17;;;;;;;-143.98;100.00;68091.63;5053395;28;20048;-82
2021/04/16 06:52:15;;;;;;;5.55;1.92;;;;;;;-143.98;100.00;68091.63;5053615;28;20084;-83
2021/04/16 06:54:52;;;;;;;4.57;1.95;;;;;;;-143.98;100.00;68091.63;5069591;28;20332;-83
2021/04/16 06:57:23;;;;;;;3.80;2.03;;;;;;;-143.98;100.00;68091.63;5054167;28;20274;-82
2021/04/16 07:00:31;;;;;;;6.30;2.17;;;;;;;-143.98;100.00;68091.63;5073412;28;20056;-81
2021/04/16 07:03:11;;;;;;;4.57;2.13;;;;;;;-143.98;100.00;68091.63;5061550;28;20056;-81
2021/04/16 07:05:42;;;;;;;4.35;2.03;;;;;;;-143.98;100.00;68091.63;5054877;28;20080;-82
2021/04/16 07:08:19;;;;;;;4.97;2.33;;;;;;;-143.98;100.00;68091.63;5058413;28;20052;-83
2021/04/16 07:10:45;;;;;;;4.28;1.90;;;;;;;-143.98;100.00;68091.63;5054646;28;20232;-82
2021/04/16 07:13:26;;;;;;;8.15;2.25;;;;;;;-143.98;100.00;68091.63;5037516;28;20052;-83
2021/04/16 07:15:59;;;;;;;3.50;1.65;;;;;;;-143.98;100.00;68091.63;5038733;28;20218;-82
2021/04/16 07:18:43;;;;;;;5.13;1.80;;;;;;;-143.98;100.00;68091.63;5044534;28;20293;-82
2021/04/16 07:21:19;;;;;;;4.20;1.65;;;;;;;-143.98;100.00;68091.63;5044289;28;20215;-83
2021/04/16 07:24:06;;;;;;;3.13;1.95;;;;;;;-143.98;100.00;68091.63;5040403;28;20084;-82
2021/04/16 07:26:44;;;;;;;5.95;2.20;;;;;;;-143.98;100.00;68091.63;5039542;28;20065;-82
2021/04/16 07:29:18;;;;;;;3.80;2.13;;;;;;;-143.98;100.00;68091.63;5065043;28;20113;-82
2021/04/16 07:31:53;;;;;;;3.83;1.70;;;;;;;-143.98;100.00;68091.63;5044275;28;20060;-83
2021/04/16 07:34:33;;;;;;;5.88;1.98;;;;;;;-143.98;100.00;68091.63;5083845;28;20040;-84
2021/04/16 07:37:25;;;;;;;4.38;2.00;;;;;;;-143.98;100.00;68091.63;5079630;28;20108;-82
2021/04/16 07:40:05;;;;;;;4.45;1.60;;;;;;;-143.98;100.00;68091.63;5059854;28;20124;-84
2021/04/16 07:42:46;;;;;;;4.63;2.33;;;;;;;-143.98;100.00;68091.63;5081496;28;20222;-83
2021/04/16 07:45:24;;;;;;;3.35;1.92;;;;;;;-143.98;100.00;68091.63;5065671;28;20056;-83
2021/04/16 07:47:53;;;;;;;6.05;2.55;;;;;;;-143.98;100.00;68091.63;5072856;28;20053;-83
2021/04/16 07:50:33;;;;;;;4.38;2.30;;;;;;;-143.98;100.00;68091.63;5038824;28;20147;-84
2021/04/16 07:52:59;;;;;;;2.90;1.92;;;;;;;-143.98;100.00;68091.63;5038271;28;20048;-83
2021/04/16 07:55:34;;;;;;;6.43;1.58;;;;;;;-143.98;100.00;68091.63;5042315;28;20052;-84
2021/04/16 07:58:16;;;;;;;5.75;1.60;;;;;;;-143.98;100.00;68091.63;5053417;28;20056;-86
2021/04/16 08:00:47;;;;;;;3.20;2.00;;;;;;;-143.98;100.00;68091.63;5036302;28;20147;-85
2021/04/16 08:03:26;;;;;;;2.45;1.60;;;;;;;-143.98;100.00;68091.63;5023164;28;20111;-83
2021/04/16 08:05:56;;;;;;;3.20;1.67;;;;;;;-143.98;100.00;68091.63;5028572;28;20117;-84
2021/04/16 08:08:35;;;;;;;3.97;2.17;;;;;;;-143.98;100.00;68091.63;5046700;28;20232;-83
2021/04/16 08:11:19;;;;;;;3.45;1.77;;;;;;;-143.98;100.00;68091.63;5049388;28;20132;-83
2021/04/16 08:13:47;;;;;;;3.20;1.60;;;;;;;-143.98;100.00;68091.63;5045675;28;20053;-84
2021/04/16 08:16:25;;;;;;;5.43;1.70;;;;;;;-143.98;100.00;68091.63;5042740;28;20068;-85
2021/04/16 08:19:19;;;;;;;2.97;1.50;;;;;;;-143.98;100.00;68091.63;5058405;28;20057;-84
2021/04/16 08:22:05;;;;;;;5.20;1.80;;;;;;;-143.98;100.00;68091.63;5033406;28;20053;-85
2021/04/16 08:25:02;;;;;;;3.85;1.60;;;;;;;-143.98;100.00;68091.63;5031941;28;20406;-85
2021/04/16 08:27:41;;;;;;;4.43;1.77;;;;;;;-143.98;100.00;68091.63;5030265;28;20191;-88
2021/04/16 08:30:27;;;;;;;7.53;2.10;;;;;;;-143.98;100.00;68091.63;5014222;28;20057;-82
2021/04/16 08:33:31;;;;;;;5.28;2.20;;;;;;;-143.98;100.00;68091.63;5011956;28;20400;-84
2021/04/16 08:36:20;;;;;;;4.75;2.22;;;;;;;-143.98;100.00;68091.63;5014410;28;20088;-84
2021/04/16 08:38:56;;;;;;;2.83;1.65;;;;;;;-143.98;100.00;68091.63;5032890;28;20376;-84
2021/04/16 08:41:27;;;;;;;5.40;1.98;;;;;;;-143.98;100.00;68091.63;5014780;28;20053;-85
2021/04/16 08:43:58;;;;;;;5.72;1.77;;;;;;;-143.98;100.00;68091.63;5015933;28;20299;-84
2021/04/16 08:46:37;;;;;;;6.30;1.88;;;;;;;-143.98;100.00;68091.63;5000519;28;20049;-84
2021/04/16 08:49:10;;;;;;;7.03;1.90;;;;;;;-143.98;100.00;68091.63;4997542;28;20145;-84
2021/04/16 08:51:44;;;;;;;5.68;1.85;;;;;;;-143.98;100.00;68091.63;5014624;28;20241;-84
2021/04/16 08:54:27;;;;;;;3.42;1.75;;;;;;;-143.98;100.00;68091.63;5015443;28;20120;-84
2021/04/16 08:57:07;;;;;;;4.78;2.13;;;;;;;-143.98;100.00;68091.63;5014638;28;20311;-84
2021/04/16 08:59:44;;;;;;;6.43;1.90;;;;;;;-143.98;100.00;68091.63;5030862;28;20507;-84
2021/04/16 09:02:22;;;;;;;4.32;1.77;;;;;;;-143.98;100.00;68091.63;5015733;28;20096;-83
2021/04/16 09:04:52;;;;;;;5.93;1.77;;;;;;;-143.98;100.00;68091.63;5035373;28;20063;-84
2021/04/16 09:07:34;;;;;;;3.72;1.95;;;;;;;-143.98;100.00;68091.63;5034955;28;20052;-84
2021/04/16 09:10:30;;;;;;;4.50;1.98;;;;;;;-143.98;100.00;68091.63;5034513;28;20059;-84
2021/04/16 09:12:59;;;;;;;4.85;1.85;;;;;;;-143.98;100.00;68091.63;5033065;28;20053;-84
2021/04/16 09:15:29;;;;;;;5.30;2.00;;;;;;;-143.98;100.00;68091.63;5019219;28;20168;-84
2021/04/16 09:18:06;;;;;;;6.82;2.10;;;;;;;-143.98;100.00;68091.63;5032790;28;20401;-84
2021/04/16 09:20:49;;;;;;;4.35;2.10;;;;;;;-143.98;100.00;68091.63;5039830;28;20057;-84
2021/04/16 09:23:40;;;;;;;3.65;2.08;;;;;;;-143.98;100.00;68091.63;5078536;28;20055;-83
2021/04/16 09:26:46;;;;;;;5.03;2.42;;;;;;;-143.98;100.00;68091.63;5056707;28;20136;-83
2021/04/16 09:29:29;;;;;;;6.10;2.13;;;;;;;-143.98;100.00;68091.63;5068772;28;20057;-84
2021/04/16 09:31:58;;;;;;;6.18;2.70;;;;;;;-143.98;100.00;68091.63;5065994;28;20056;-83
2021/04/16 09:34:49;;;;;;;5.43;2.15;;;;;;;-143.98;100.00;68091.63;5055531;28;20076;-84
2021/04/16 09:37:36;;;;;;;8.55;2.40;;;;;;;-143.98;100.00;68091.63;5061271;28;20048;-84
2021/04/16 09:40:05;;;;;;;5.03;2.17;;;;;;;-143.98;100.00;68091.63;5052849;28;20079;-85
2021/04/16 09:42:42;;;;;;;4.93;2.05;;;;;;;-143.98;100.00;68091.63;5051022;28;20083;-84
2021/04/16 09:45:35;;;;;;;6.78;2.30;;;;;;;-143.98;100.00;68091.63;5047080;28;20083;-84
2021/04/16 09:48:07;;;;;;;2.80;1.63;;;;;;;-143.98;100.00;68091.63;5033163;28;20057;-84
2021/04/16 09:50:44;;;;;;;5.78;2.60;;;;;;;-143.98;100.00;68091.63;5041594;28;20072;-84
2021/04/16 09:53:31;;;;;;;5.10;1.95;;;;;;;-143.98;100.00;68091.63;5037562;28;20057;-83
2021/04/16 09:56:18;;;;;;;6.88;2.30;;;;;;;-143.98;100.00;68091.63;5033761;28;20053;-85
2021/04/16 09:58:49;;;;;;;4.68;1.75;;;;;;;-143.98;100.00;68091.63;5036030;28;20569;-85
2021/04/16 10:01:25;;;;;;;6.38;2.70;;;;;;;-143.98;100.00;68091.63;5050028;28;20083;-84
2021/04/16 10:04:07;;;;;;;6.05;2.60;;;;;;;-143.98;100.00;68091.63;5032952;28;20077;-86
2021/04/16 10:06:39;;;;;;;7.70;2.60;;;;;;;-143.98;100.00;68091.63;5045697;28;20147;-84
2021/04/16 10:09:16;;;;;;;6.97;2.75;;;;;;;-143.98;100.00;68091.63;5055556;28;20053;-84
2021/04/16 10:11:49;;;;;;;5.90;2.50;;;;;;;-143.98;100.00;68091.63;5077601;28;20053;-83
2021/04/16 10:14:24;;;;;;;6.97;2.47;;;;;;;-143.98;100.00;68091.63;5062711;28;20056;-84
2021/04/16 10:17:29;;;;;;;4.10;2.33;;;;;;;-143.98;100.00;68091.63;5056399;28;20045;-84
2021/04/16 10:20:08;;;;;;;5.30;2.45;;;;;;;-143.98;100.00;68091.63;5030022;28;20060;-84
2021/04/16 10:22:41;;;;;;;5.00;2.38;;;;;;;-143.98;100.00;68091.63;5066189;28;20052;-83
2021/04/16 12:39:00;;;;;;;3.53;2.15;;;;;;;-143.98;100.00;68091.63;5033937;28;20192;-83
2021/04/16 12:41:37;;;;;;;3.45;2.30;;;;;;;-143.98;100.00;68091.63;5051595;28;20041;-84
2021/04/16 12:44:09;;;;;;;8.90;1.80;;;;;;;-143.98;100.00;68091.63;5054431;28;20080;-84
2021/04/16 12:46:38;;;;;;;7.43;1.90;;;;;;;-143.98;100.00;68091.63;5055058;28;20045;-83
2021/04/16 12:49:08;;;;;;;3.97;1.70;;;;;;;-143.98;100.00;68091.63;5053378;28;20289;-83
2021/04/16 12:51:35;;;;;;;3.33;1.70;;;;;;;-143.98;100.00;68091.63;5064466;28;20084;-82
2021/04/16 12:54:05;;;;;;;4.40;1.92;;;;;;;-143.98;100.00;68091.63;5062720;28;20274;-83
2021/04/16 12:56:40;;;;;;;9.55;2.28;;;;;;;-143.98;100.00;68091.63;5041814;28;20053;-85
2021/04/16 12:59:25;;;;;;;3.45;2.10;;;;;;;-143.98;100.00;68091.63;5032094;28;20462;-83
2021/04/16 13:01:56;;;;;;;3.58;1.77;;;;;;;-143.98;100.00;68091.63;5034346;28;20054;-85
2021/04/16 13:04:25;;;;;;;4.05;1.95;;;;;;;-143.98;100.00;68091.63;5026268;28;20053;-83
2021/04/16 13:06:59;;;;;;;4.82;1.60;;;;;;;-143.98;100.00;68091.63;5054238;28;20237;-83
2021/04/16 13:09:25;;;;;;;2.72;1.80;;;;;;;-143.98;100.00;68091.63;5051977;28;20159;-83
2021/04/16 13:14:47;;;;;;;6.03;2.05;;;;;;;-143.98;100.00;68091.63;5036504;28;20061;-83
2021/04/16 13:17:21;;;;;;;3.80;1.58;;;;;;;-143.98;100.00;68091.63;5050997;28;20126;-84
2021/04/16 13:19:48;;;;;;;2.70;2.10;;;;;;;-143.98;100.00;68091.63;5049088;28;20068;-83
2021/04/16 13:22:20;;;;;;;3.92;1.88;;;;;;;-143.98;100.00;68091.63;5090018;28;20621;-83
2021/04/16 13:24:54;;;;;;;4.65;1.77;;;;;;;-143.98;100.00;68091.63;5094167;28;20141;-83
2021/04/16 13:27:31;;;;;;;3.97;1.98;;;;;;;-143.98;100.00;68091.63;5100938;28;20116;-82
2021/04/16 13:30:06;;;;;;;4.60;1.60;;;;;;;-143.98;100.00;68091.63;5069716;28;20102;-82
2021/04/16 13:32:48;;;;;;;4.82;1.85;;;;;;;-143.98;100.00;68091.63;5037648;28;20056;-83
2021/04/16 13:35:21;;;;;;;3.67;1.92;;;;;;;-143.98;100.00;68091.63;5060339;28;20099;-83
2021/04/16 13:37:48;;;;;;;3.88;1.88;;;;;;;-143.98;100.00;68091.63;5032639;28;20053;-82
2021/04/16 13:40:20;;;;;;;2.40;1.50;;;;;;;-143.98;100.00;68091.63;5054418;28;20060;-82
2021/04/16 13:42:46;;;;;;;4.43;2.28;;;;;;;-143.98;100.00;68091.63;5037463;28;20082;-82
2021/04/16 13:45:12;;;;;;;3.35;1.52;;;;;;;-143.98;100.00;68091.63;5052548;28;20110;-83
2021/04/16 13:47:45;;;;;;;3.40;1.60;;;;;;;-143.98;100.00;68091.63;5050593;28;20056;-83
2021/04/16 13:50:15;;;;;;;3.83;1.70;;;;;;;-143.98;100.00;68091.63;5054814;28;20087;-82